Home   Weather   Israel   Rehovot   Past weeks
Flag for Israel

Past Weather in Rehovot, Israel — Yesterday and Last 2 Weeks

Currently: 61 °F. Clear. (Weather station: Ben Gurion International Airport, Israel). See more current weather

Past Weather in Rehovot — Graph

°F

Rehovot Temperature Yesterday

Maximum temperature yesterday: 66 °F (at 2:20 pm)
Minimum temperature yesterday: 54 °F (at 1:50 am)
Average temperature yesterday: 59 °F

High & Low Weather Summary for the Past Weeks

 TemperatureHumidityPressure
High97 °F (Apr 6, 2:50 pm)94% (Apr 2, 10:50 am)30.18 "Hg (Apr 2, 10:50 am)
Low48 °F (Mar 30, 4:20 am)7% (Apr 6, 1:50 pm)29.74 "Hg (Apr 6, 3:50 pm)
Average63 °F56%30.01 "Hg
* Reported Mar 29 7:20 pm — Apr 13 7:50 pm, Rehovot. Weather by CustomWeather, © 2021

Note: Actual official high and low records may vary slightly from our data, if they occured in-between our weather recording intervals... More about our weather records

Rehovot Weather History for the Previous 24 Hours

Scroll right to see more
 ConditionsComfort  
Time TempWeatherWind HumidityBarometerVisibility
7:50 pm
Tue, Apr 13
63 °FClear.9 mph56%30.09 "Hg10 mi
7:20 pm63 °FClear.13 mph56%30.09 "Hg10 mi
6:50 pm63 °FSunny.13 mph52%30.09 "Hg10 mi
6:20 pm64 °FSunny.13 mph49%30.09 "Hg10 mi
5:50 pm64 °FSunny.13 mph49%30.09 "Hg10 mi
5:20 pm66 °FSunny.14 mph46%30.09 "Hg10 mi
4:50 pm66 °FSunny.15 mph43%30.09 "Hg10 mi
4:20 pm66 °FSunny.14 mph43%30.09 "Hg10 mi
3:50 pm66 °FSunny.13 mph43%30.09 "Hg10 mi
3:20 pm66 °FPassing clouds.13 mph46%30.09 "HgN/A
2:50 pm66 °FPassing clouds.14 mph46%30.09 "HgN/A
2:20 pm66 °FPassing clouds.12 mph43%30.09 "HgN/A
1:50 pm66 °FPassing clouds.13 mph43%30.12 "HgN/A
1:20 pm68 °FPassing clouds.14 mph43%30.12 "HgN/A
12:50 pm68 °FPassing clouds.9 mph43%30.12 "HgN/A
12:20 pm66 °FPassing clouds.6 mph43%30.12 "HgN/A
11:50 am66 °FScattered clouds.3 mph43%30.12 "HgN/A
11:20 am66 °FScattered clouds.7 mph43%30.15 "HgN/A
10:50 am63 °FScattered clouds.5 mph49%30.15 "HgN/A
10:20 am63 °FScattered clouds.3 mph49%30.15 "HgN/A
9:50 am64 °FScattered clouds.3 mph46%30.12 "HgN/A
9:20 am63 °FPassing clouds.1 mph49%30.12 "HgN/A
8:50 am61 °FPassing clouds.2 mph52%30.12 "HgN/A
8:20 am57 °FSunny.3 mph59%30.12 "Hg10 mi
7:50 am55 °FSunny.2 mph63%30.12 "Hg10 mi
7:20 am54 °FPassing clouds.3 mph67%30.12 "HgN/A
6:50 am52 °FPassing clouds.2 mph72%30.12 "HgN/A
6:20 am52 °FPassing clouds.2 mph72%30.09 "HgN/A
5:50 am52 °FPassing clouds.3 mph72%30.09 "HgN/A
5:20 am52 °FClear.3 mph72%30.09 "Hg10 mi
4:50 am52 °FClear.5 mph72%30.09 "Hg10 mi
4:20 am52 °FClear.5 mph72%30.09 "Hg10 mi
3:50 am52 °FClear.3 mph72%30.09 "Hg10 mi
3:20 am52 °FClear.2 mph72%30.09 "Hg10 mi
2:50 am54 °FClear.5 mph67%30.09 "Hg10 mi
2:20 am54 °FClear.3 mph67%30.09 "Hg10 mi
1:50 am52 °FClear.6 mph72%30.12 "Hg10 mi
1:20 am54 °FClear.5 mph67%30.12 "Hg10 mi
12:50 am54 °FClear.6 mph67%30.12 "Hg10 mi
12:20 am54 °FPassing clouds.2 mph67%30.12 "HgN/A
11:50 pm
Mon, Apr 12
54 °FPassing clouds.2 mph67%30.12 "HgN/A
11:20 pm57 °FPassing clouds.3 mph59%30.12 "HgN/A
10:50 pm57 °FPassing clouds.3 mph59%30.12 "HgN/A
10:20 pm59 °FPassing clouds.3 mph55%30.12 "HgN/A
9:50 pm59 °FPassing clouds.3 mph55%30.12 "HgN/A
9:20 pm59 °FPassing clouds.6 mph55%30.12 "HgN/A
8:50 pm61 °FPassing clouds.7 mph52%30.12 "HgN/A
8:20 pm61 °FPassing clouds.8 mph52%30.09 "HgN/A
Weather by CustomWeather, © 2021

See weather overview